sensor_id;sensor_type;location;lat;lon;timestamp;pressure;altitude;pressure_sealevel;temperature;humidity
72558;BME280;60583;50.094;8.748;2023-04-07T00:02:04;100531.72;;;7.84;92.98
72558;BME280;60583;50.094;8.748;2023-04-07T00:04:29;100527.31;;;7.77;93.54
72558;BME280;60583;50.094;8.748;2023-04-07T00:06:55;100496.88;;;7.64;93.90
72558;BME280;60583;50.094;8.748;2023-04-07T00:09:20;100519.44;;;7.60;93.43
72558;BME280;60583;50.094;8.748;2023-04-07T00:11:46;100535.66;;;7.65;94.61
72558;BME280;60583;50.094;8.748;2023-04-07T00:14:13;100530.94;;;7.53;93.95
72558;BME280;60583;50.094;8.748;2023-04-07T00:16:38;100499.66;;;7.40;93.17
72558;BME280;60583;50.094;8.748;2023-04-07T00:19:05;100536.94;;;7.47;94.84
72558;BME280;60583;50.094;8.748;2023-04-07T00:21:31;100534.94;;;7.49;93.60
72558;BME280;60583;50.094;8.748;2023-04-07T00:23:56;100519.59;;;7.36;94.81
72558;BME280;60583;50.094;8.748;2023-04-07T00:26:22;100507.16;;;7.37;95.13
72558;BME280;60583;50.094;8.748;2023-04-07T00:28:47;100514.59;;;7.41;95.33
72558;BME280;60583;50.094;8.748;2023-04-07T00:31:13;100514.22;;;7.52;94.81
72558;BME280;60583;50.094;8.748;2023-04-07T00:33:38;100512.72;;;7.50;95.48
72558;BME280;60583;50.094;8.748;2023-04-07T00:36:04;100503.34;;;7.39;95.86
72558;BME280;60583;50.094;8.748;2023-04-07T00:38:29;100501.00;;;7.44;94.54
72558;BME280;60583;50.094;8.748;2023-04-07T00:40:58;100500.03;;;7.37;95.73
72558;BME280;60583;50.094;8.748;2023-04-07T00:43:24;100504.78;;;7.50;95.01
72558;BME280;60583;50.094;8.748;2023-04-07T00:45:51;100485.81;;;7.30;95.38
72558;BME280;60583;50.094;8.748;2023-04-07T00:48:16;100502.22;;;7.34;95.42
72558;BME280;60583;50.094;8.748;2023-04-07T00:50:43;100487.28;;;7.33;95.83
72558;BME280;60583;50.094;8.748;2023-04-07T00:53:09;100489.34;;;7.45;95.05
72558;BME280;60583;50.094;8.748;2023-04-07T00:55:35;100486.59;;;7.39;94.94
72558;BME280;60583;50.094;8.748;2023-04-07T00:58:00;100461.47;;;7.27;95.83
72558;BME280;60583;50.094;8.748;2023-04-07T01:00:26;100481.78;;;7.42;94.92
72558;BME280;60583;50.094;8.748;2023-04-07T01:02:58;100468.56;;;7.34;95.50
72558;BME280;60583;50.094;8.748;2023-04-07T01:05:41;100459.59;;;7.35;95.06
72558;BME280;60583;50.094;8.748;2023-04-07T01:11:04;100477.41;;;7.49;94.85
72558;BME280;60583;50.094;8.748;2023-04-07T01:13:33;100470.88;;;7.37;95.16
72558;BME280;60583;50.094;8.748;2023-04-07T01:16:04;100468.91;;;7.31;95.73
72558;BME280;60583;50.094;8.748;2023-04-07T01:18:34;100459.97;;;7.32;96.17
72558;BME280;60583;50.094;8.748;2023-04-07T01:21:10;100456.94;;;7.35;96.25
72558;BME280;60583;50.094;8.748;2023-04-07T01:23:58;100457.13;;;7.34;96.51
72558;BME280;60583;50.094;8.748;2023-04-07T01:26:27;100416.09;;;7.22;95.81
72558;BME280;60583;50.094;8.748;2023-04-07T01:31:36;100451.75;;;7.42;95.97
72558;BME280;60583;50.094;8.748;2023-04-07T01:34:03;100447.16;;;7.36;96.08
72558;BME280;60583;50.094;8.748;2023-04-07T01:36:30;100448.88;;;7.51;95.25
72558;BME280;60583;50.094;8.748;2023-04-07T01:38:58;100435.03;;;7.41;95.93
72558;BME280;60583;50.094;8.748;2023-04-07T01:41:25;100426.75;;;7.36;95.83
72558;BME280;60583;50.094;8.748;2023-04-07T01:43:51;100387.38;;;7.02;95.52
72558;BME280;60583;50.094;8.748;2023-04-07T01:46:17;100415.97;;;7.15;95.87
72558;BME280;60583;50.094;8.748;2023-04-07T01:48:43;100385.44;;;6.96;96.70
72558;BME280;60583;50.094;8.748;2023-04-07T01:51:09;100438.75;;;7.32;96.60
72558;BME280;60583;50.094;8.748;2023-04-07T01:53:37;100404.59;;;7.06;96.03
72558;BME280;60583;50.094;8.748;2023-04-07T01:56:03;100394.03;;;6.98;96.26
72558;BME280;60583;50.094;8.748;2023-04-07T01:58:29;100423.75;;;7.17;96.97
72558;BME280;60583;50.094;8.748;2023-04-07T02:00:55;100436.44;;;7.29;96.27
72558;BME280;60583;50.094;8.748;2023-04-07T02:03:30;100440.06;;;7.28;96.83
72558;BME280;60583;50.094;8.748;2023-04-07T02:06:04;100423.03;;;7.23;96.40
72558;BME280;60583;50.094;8.748;2023-04-07T02:08:31;100417.63;;;7.16;96.48
72558;BME280;60583;50.094;8.748;2023-04-07T02:10:58;100426.47;;;7.31;96.94
72558;BME280;60583;50.094;8.748;2023-04-07T02:13:26;100425.41;;;7.40;96.37
72558;BME280;60583;50.094;8.748;2023-04-07T02:15:53;100421.66;;;7.35;96.74
72558;BME280;60583;50.094;8.748;2023-04-07T02:18:20;100391.09;;;7.16;96.80
72558;BME280;60583;50.094;8.748;2023-04-07T02:20:47;100426.72;;;7.44;95.95
72558;BME280;60583;50.094;8.748;2023-04-07T02:23:12;100362.72;;;7.02;96.54
72558;BME280;60583;50.094;8.748;2023-04-07T02:25:38;100410.22;;;7.34;96.70
72558;BME280;60583;50.094;8.748;2023-04-07T02:28:04;100410.75;;;7.30;96.84
72558;BME280;60583;50.094;8.748;2023-04-07T02:30:31;100414.38;;;7.51;96.01
72558;BME280;60583;50.094;8.748;2023-04-07T02:32:57;100386.41;;;7.26;97.04
72558;BME280;60583;50.094;8.748;2023-04-07T02:35:22;100400.25;;;7.36;97.30
72558;BME280;60583;50.094;8.748;2023-04-07T02:37:48;100409.47;;;7.40;96.89
72558;BME280;60583;50.094;8.748;2023-04-07T02:40:17;100409.28;;;7.27;97.16
72558;BME280;60583;50.094;8.748;2023-04-07T02:42:42;100408.84;;;7.38;96.89
72558;BME280;60583;50.094;8.748;2023-04-07T02:45:09;100403.59;;;7.30;98.02
72558;BME280;60583;50.094;8.748;2023-04-07T02:47:36;100410.78;;;7.44;97.08
72558;BME280;60583;50.094;8.748;2023-04-07T02:50:02;100405.59;;;7.28;98.12
72558;BME280;60583;50.094;8.748;2023-04-07T02:52:27;100409.78;;;7.23;98.24
72558;BME280;60583;50.094;8.748;2023-04-07T02:54:53;100404.66;;;7.21;98.74
72558;BME280;60583;50.094;8.748;2023-04-07T02:57:18;100395.41;;;7.17;99.13
72558;BME280;60583;50.094;8.748;2023-04-07T02:59:44;100402.94;;;7.28;97.97
72558;BME280;60583;50.094;8.748;2023-04-07T03:02:09;100396.06;;;7.19;98.81
72558;BME280;60583;50.094;8.748;2023-04-07T03:04:35;100415.22;;;7.29;98.63
72558;BME280;60583;50.094;8.748;2023-04-07T03:07:00;100408.75;;;7.32;98.07
72558;BME280;60583;50.094;8.748;2023-04-07T03:09:26;100397.59;;;7.36;98.46
72558;BME280;60583;50.094;8.748;2023-04-07T03:11:52;100367.59;;;7.13;99.12
72558;BME280;60583;50.094;8.748;2023-04-07T03:14:17;100396.66;;;7.29;99.15
72558;BME280;60583;50.094;8.748;2023-04-07T03:16:43;100382.75;;;7.27;98.88
72558;BME280;60583;50.094;8.748;2023-04-07T03:19:08;100395.13;;;7.35;98.35
72558;BME280;60583;50.094;8.748;2023-04-07T03:21:38;100344.81;;;7.04;98.15
72558;BME280;60583;50.094;8.748;2023-04-07T03:24:05;100398.97;;;7.32;98.03
72558;BME280;60583;50.094;8.748;2023-04-07T03:26:31;100387.91;;;7.21;98.69
72558;BME280;60583;50.094;8.748;2023-04-07T03:28:56;100388.41;;;7.24;98.38
72558;BME280;60583;50.094;8.748;2023-04-07T03:31:22;100384.88;;;7.32;97.92
72558;BME280;60583;50.094;8.748;2023-04-07T03:33:48;100366.75;;;7.13;98.12
72558;BME280;60583;50.094;8.748;2023-04-07T03:36:14;100376.38;;;7.36;97.42
72558;BME280;60583;50.094;8.748;2023-04-07T03:38:40;100384.31;;;7.36;98.59
72558;BME280;60583;50.094;8.748;2023-04-07T03:41:05;100397.25;;;7.39;98.13
72558;BME280;60583;50.094;8.748;2023-04-07T03:43:31;100385.69;;;7.32;98.25
72558;BME280;60583;50.094;8.748;2023-04-07T03:45:56;100379.13;;;7.20;99.02
72558;BME280;60583;50.094;8.748;2023-04-07T03:48:22;100390.16;;;7.32;99.15
72558;BME280;60583;50.094;8.748;2023-04-07T03:50:47;100377.44;;;7.27;99.05
72558;BME280;60583;50.094;8.748;2023-04-07T03:53:13;100358.34;;;7.09;98.71
72558;BME280;60583;50.094;8.748;2023-04-07T03:55:41;100387.88;;;7.29;99.13
72558;BME280;60583;50.094;8.748;2023-04-07T03:58:06;100361.00;;;7.09;99.20
72558;BME280;60583;50.094;8.748;2023-04-07T04:00:32;100377.59;;;7.26;97.88
72558;BME280;60583;50.094;8.748;2023-04-07T04:02:59;100377.56;;;7.11;99.14
72558;BME280;60583;50.094;8.748;2023-04-07T04:05:25;100381.19;;;7.10;99.72
72558;BME280;60583;50.094;8.748;2023-04-07T04:07:50;100376.28;;;7.07;98.60
72558;BME280;60583;50.094;8.748;2023-04-07T04:10:17;100377.78;;;7.01;99.95
72558;BME280;60583;50.094;8.748;2023-04-07T04:12:43;100378.97;;;6.99;100.00
72558;BME280;60583;50.094;8.748;2023-04-07T04:15:09;100366.09;;;6.88;100.00
72558;BME280;60583;50.094;8.748;2023-04-07T04:17:35;100361.63;;;6.88;100.00
72558;BME280;60583;50.094;8.748;2023-04-07T04:20:00;100364.69;;;7.00;99.60
72558;BME280;60583;50.094;8.748;2023-04-07T04:22:25;100382.50;;;7.14;99.41
72558;BME280;60583;50.094;8.748;2023-04-07T04:24:51;100366.69;;;6.98;100.00
72558;BME280;60583;50.094;8.748;2023-04-07T04:27:16;100384.44;;;7.20;99.06
72558;BME280;60583;50.094;8.748;2023-04-07T04:29:42;100348.69;;;6.93;98.97
72558;BME280;60583;50.094;8.748;2023-04-07T04:32:07;100380.22;;;7.11;99.63
72558;BME280;60583;50.094;8.748;2023-04-07T04:34:33;100376.91;;;7.09;99.70
72558;BME280;60583;50.094;8.748;2023-04-07T04:36:58;100386.50;;;7.10;99.34
72558;BME280;60583;50.094;8.748;2023-04-07T04:39:24;100386.50;;;7.10;99.41
72558;BME280;60583;50.094;8.748;2023-04-07T04:41:49;100386.03;;;7.06;99.26
72558;BME280;60583;50.094;8.748;2023-04-07T04:44:15;100378.09;;;7.06;99.96
72558;BME280;60583;50.094;8.748;2023-04-07T04:46:40;100357.03;;;6.82;99.90
72558;BME280;60583;50.094;8.748;2023-04-07T04:49:06;100378.97;;;6.99;100.00
72558;BME280;60583;50.094;8.748;2023-04-07T04:51:31;100386.28;;;6.97;100.00
72558;BME280;60583;50.094;8.748;2023-04-07T04:53:57;100393.16;;;7.06;99.67
72558;BME280;60583;50.094;8.748;2023-04-07T04:56:22;100393.81;;;7.08;99.37
72558;BME280;60583;50.094;8.748;2023-04-07T04:58:48;100353.56;;;6.82;99.95
72558;BME280;60583;50.094;8.748;2023-04-07T05:01:13;100391.78;;;7.10;100.00
72558;BME280;60583;50.094;8.748;2023-04-07T05:03:39;100396.13;;;7.11;100.00
72558;BME280;60583;50.094;8.748;2023-04-07T05:06:05;100397.00;;;7.03;100.00
72558;BME280;60583;50.094;8.748;2023-04-07T05:08:30;100386.28;;;6.97;100.00
72558;BME280;60583;50.094;8.748;2023-04-07T05:10:56;100402.59;;;7.08;100.00
72558;BME280;60583;50.094;8.748;2023-04-07T05:13:21;100405.25;;;7.08;100.00
72558;BME280;60583;50.094;8.748;2023-04-07T05:15:48;100396.16;;;7.03;100.00
72558;BME280;60583;50.094;8.748;2023-04-07T05:18:13;100368.72;;;6.96;99.48
72558;BME280;60583;50.094;8.748;2023-04-07T05:20:39;100400.06;;;7.15;100.00
72558;BME280;60583;50.094;8.748;2023-04-07T05:23:04;100375.38;;;6.92;99.76
72558;BME280;60583;50.094;8.748;2023-04-07T05:25:30;100401.72;;;7.16;99.84
72558;BME280;60583;50.094;8.748;2023-04-07T05:27:57;100370.88;;;6.92;100.00
72558;BME280;60583;50.094;8.748;2023-04-07T05:30:24;100394.63;;;7.08;99.99
72558;BME280;60583;50.094;8.748;2023-04-07T05:32:51;100392.69;;;7.02;99.82
72558;BME280;60583;50.094;8.748;2023-04-07T05:35:17;100390.03;;;7.02;100.00
72558;BME280;60583;50.094;8.748;2023-04-07T05:37:42;100337.56;;;6.67;100.00
72558;BME280;60583;50.094;8.748;2023-04-07T05:40:08;100356.81;;;6.92;100.00
72558;BME280;60583;50.094;8.748;2023-04-07T05:42:34;100373.13;;;7.03;100.00
72558;BME280;60583;50.094;8.748;2023-04-07T05:44:59;100396.31;;;7.10;100.00
72558;BME280;60583;50.094;8.748;2023-04-07T05:47:25;100376.66;;;6.96;100.00
72558;BME280;60583;50.094;8.748;2023-04-07T05:49:50;100364.94;;;6.90;100.00
72558;BME280;60583;50.094;8.748;2023-04-07T05:52:16;100360.72;;;7.04;100.00
72558;BME280;60583;50.094;8.748;2023-04-07T05:54:41;100334.34;;;6.80;100.00
72558;BME280;60583;50.094;8.748;2023-04-07T05:57:07;100379.72;;;7.07;100.00
72558;BME280;60583;50.094;8.748;2023-04-07T05:59:33;100395.34;;;7.25;100.00
72558;BME280;60583;50.094;8.748;2023-04-07T06:01:59;100361.47;;;7.13;100.00
72558;BME280;60583;50.094;8.748;2023-04-07T06:04:24;100394.66;;;7.31;99.20
72558;BME280;60583;50.094;8.748;2023-04-07T06:06:50;100396.53;;;7.23;99.23
72558;BME280;60583;50.094;8.748;2023-04-07T06:09:20;100395.00;;;7.28;99.08
72558;BME280;60583;50.094;8.748;2023-04-07T06:11:45;100401.97;;;7.29;100.00
72558;BME280;60583;50.094;8.748;2023-04-07T06:14:11;100404.03;;;7.19;100.00
72558;BME280;60583;50.094;8.748;2023-04-07T06:16:36;100397.69;;;7.20;99.77
72558;BME280;60583;50.094;8.748;2023-04-07T06:19:02;100388.47;;;7.16;99.97
72558;BME280;60583;50.094;8.748;2023-04-07T06:21:28;100363.00;;;7.07;99.73
72558;BME280;60583;50.094;8.748;2023-04-07T06:23:53;100361.41;;;6.98;99.57
72558;BME280;60583;50.094;8.748;2023-04-07T06:26:19;100407.25;;;7.29;99.60
72558;BME280;60583;50.094;8.748;2023-04-07T06:28:45;100372.72;;;7.15;99.19
72558;BME280;60583;50.094;8.748;2023-04-07T06:31:11;100387.47;;;7.17;99.60
72558;BME280;60583;50.094;8.748;2023-04-07T06:33:36;100403.47;;;7.24;100.00
72558;BME280;60583;50.094;8.748;2023-04-07T06:36:02;100401.03;;;7.22;99.73
72558;BME280;60583;50.094;8.748;2023-04-07T06:38:28;100375.47;;;6.98;100.00
72558;BME280;60583;50.094;8.748;2023-04-07T06:40:53;100391.16;;;7.08;100.00
72558;BME280;60583;50.094;8.748;2023-04-07T06:43:19;100405.66;;;7.20;99.93
72558;BME280;60583;50.094;8.748;2023-04-07T06:45:44;100376.72;;;7.11;99.66
72558;BME280;60583;50.094;8.748;2023-04-07T06:48:10;100406.31;;;7.22;100.00
72558;BME280;60583;50.094;8.748;2023-04-07T06:50:36;100380.91;;;7.05;99.74
72558;BME280;60583;50.094;8.748;2023-04-07T06:53:03;100409.72;;;7.31;99.75
72558;BME280;60583;50.094;8.748;2023-04-07T06:55:28;100406.03;;;7.17;100.00
72558;BME280;60583;50.094;8.748;2023-04-07T06:57:54;100397.25;;;7.17;100.00
72558;BME280;60583;50.094;8.748;2023-04-07T07:00:19;100393.06;;;7.22;100.00
72558;BME280;60583;50.094;8.748;2023-04-07T07:02:50;100413.03;;;7.33;100.00
72558;BME280;60583;50.094;8.748;2023-04-07T07:05:15;100407.06;;;7.31;100.00
72558;BME280;60583;50.094;8.748;2023-04-07T07:07:41;100389.41;;;7.23;100.00
72558;BME280;60583;50.094;8.748;2023-04-07T07:10:08;100412.81;;;7.42;100.00
72558;BME280;60583;50.094;8.748;2023-04-07T07:12:34;100361.28;;;7.14;99.54
72558;BME280;60583;50.094;8.748;2023-04-07T07:15:00;100423.75;;;7.39;99.99
72558;BME280;60583;50.094;8.748;2023-04-07T07:17:25;100416.63;;;7.40;100.00
72558;BME280;60583;50.094;8.748;2023-04-07T07:19:51;100424.81;;;7.53;99.65
72558;BME280;60583;50.094;8.748;2023-04-07T07:22:16;100424.66;;;7.54;98.86
72558;BME280;60583;50.094;8.748;2023-04-07T07:24:42;100416.69;;;7.54;99.14
72558;BME280;60583;50.094;8.748;2023-04-07T07:27:07;100421.47;;;7.36;99.54
72558;BME280;60583;50.094;8.748;2023-04-07T07:29:32;100392.03;;;7.23;100.00
72558;BME280;60583;50.094;8.748;2023-04-07T07:31:58;100393.06;;;7.22;99.75
72558;BME280;60583;50.094;8.748;2023-04-07T07:34:23;100407.78;;;7.47;100.00
72558;BME280;60583;50.094;8.748;2023-04-07T07:36:49;100358.34;;;7.09;100.00
72558;BME280;60583;50.094;8.748;2023-04-07T07:39:14;100393.94;;;7.37;99.46
72558;BME280;60583;50.094;8.748;2023-04-07T07:41:40;100421.75;;;7.41;99.97
72558;BME280;60583;50.094;8.748;2023-04-07T07:44:06;100426.06;;;7.42;99.85
72558;BME280;60583;50.094;8.748;2023-04-07T07:46:31;100369.34;;;6.98;100.00
72558;BME280;60583;50.094;8.748;2023-04-07T07:48:56;100434.03;;;7.42;100.00
72558;BME280;60583;50.094;8.748;2023-04-07T07:51:22;100442.63;;;7.44;99.89
72558;BME280;60583;50.094;8.748;2023-04-07T07:53:47;100423.47;;;7.34;99.50
72558;BME280;60583;50.094;8.748;2023-04-07T07:56:13;100424.31;;;7.35;99.66
72558;BME280;60583;50.094;8.748;2023-04-07T07:58:38;100433.00;;;7.43;99.64
72558;BME280;60583;50.094;8.748;2023-04-07T08:01:04;100439.19;;;7.58;99.23
72558;BME280;60583;50.094;8.748;2023-04-07T08:03:30;100449.09;;;7.64;100.00
72558;BME280;60583;50.094;8.748;2023-04-07T08:05:56;100419.41;;;7.46;99.87
72558;BME280;60583;50.094;8.748;2023-04-07T08:08:21;100409.03;;;7.37;99.41
72558;BME280;60583;50.094;8.748;2023-04-07T08:10:46;100444.16;;;7.61;98.69
72558;BME280;60583;50.094;8.748;2023-04-07T08:13:13;100439.03;;;7.60;99.00
72558;BME280;60583;50.094;8.748;2023-04-07T08:15:38;100435.94;;;7.48;98.52
72558;BME280;60583;50.094;8.748;2023-04-07T08:18:04;100455.69;;;7.68;99.26
72558;BME280;60583;50.094;8.748;2023-04-07T08:20:31;100452.00;;;7.78;99.24
72558;BME280;60583;50.094;8.748;2023-04-07T08:22:57;100445.09;;;7.68;98.98
72558;BME280;60583;50.094;8.748;2023-04-07T08:25:23;100438.88;;;7.76;99.13
72558;BME280;60583;50.094;8.748;2023-04-07T08:27:48;100458.28;;;7.77;98.87
72558;BME280;60583;50.094;8.748;2023-04-07T08:30:14;100452.63;;;7.80;98.64
72558;BME280;60583;50.094;8.748;2023-04-07T08:32:43;100457.59;;;7.83;98.04
72558;BME280;60583;50.094;8.748;2023-04-07T08:35:09;100454.38;;;7.87;97.91
72558;BME280;60583;50.094;8.748;2023-04-07T08:37:36;100454.84;;;7.91;98.96
72558;BME280;60583;50.094;8.748;2023-04-07T08:40:03;100418.00;;;7.73;98.29
72558;BME280;60583;50.094;8.748;2023-04-07T08:42:31;100466.41;;;7.98;97.84
72558;BME280;60583;50.094;8.748;2023-04-07T08:44:59;100467.50;;;8.03;98.43
72558;BME280;60583;50.094;8.748;2023-04-07T08:47:27;100456.09;;;8.03;98.20
72558;BME280;60583;50.094;8.748;2023-04-07T08:49:56;100455.13;;;7.96;97.83
72558;BME280;60583;50.094;8.748;2023-04-07T08:52:49;100463.38;;;8.01;98.06
72558;BME280;60583;50.094;8.748;2023-04-07T08:55:12;100443.44;;;8.05;96.15
72558;BME280;60583;50.094;8.748;2023-04-07T08:57:38;100441.50;;;7.99;97.50
72558;BME280;60583;50.094;8.748;2023-04-07T09:00:05;100453.50;;;8.09;97.62
72558;BME280;60583;50.094;8.748;2023-04-07T09:02:32;100479.69;;;8.35;97.20
72558;BME280;60583;50.094;8.748;2023-04-07T09:04:58;100445.47;;;8.17;98.02
72558;BME280;60583;50.094;8.748;2023-04-07T09:07:24;100464.47;;;8.29;97.58
72558;BME280;60583;50.094;8.748;2023-04-07T09:09:49;100456.06;;;8.40;97.58
72558;BME280;60583;50.094;8.748;2023-04-07T09:12:15;100450.00;;;8.46;97.17
72558;BME280;60583;50.094;8.748;2023-04-07T09:14:40;100459.97;;;8.59;96.76
72558;BME280;60583;50.094;8.748;2023-04-07T09:17:06;100447.78;;;8.64;95.28
72558;BME280;60583;50.094;8.748;2023-04-07T09:19:31;100465.66;;;8.85;94.80
72558;BME280;60583;50.094;8.748;2023-04-07T09:21:57;100445.13;;;8.93;94.31
72558;BME280;60583;50.094;8.748;2023-04-07T09:24:27;100479.28;;;8.96;92.96
72558;BME280;60583;50.094;8.748;2023-04-07T09:27:12;100482.25;;;8.87;93.78
72558;BME280;60583;50.094;8.748;2023-04-07T09:29:40;100483.44;;;8.84;93.30
72558;BME280;60583;50.094;8.748;2023-04-07T09:32:07;100483.16;;;8.79;93.94
72558;BME280;60583;50.094;8.748;2023-04-07T09:34:35;100468.69;;;8.67;94.17
72558;BME280;60583;50.094;8.748;2023-04-07T09:37:02;100464.00;;;8.69;93.18
72558;BME280;60583;50.094;8.748;2023-04-07T09:39:28;100484.75;;;8.88;93.46
72558;BME280;60583;50.094;8.748;2023-04-07T09:41:53;100463.66;;;8.72;92.78
72558;BME280;60583;50.094;8.748;2023-04-07T09:44:20;100476.56;;;8.90;91.56
72558;BME280;60583;50.094;8.748;2023-04-07T09:46:53;100443.22;;;8.58;92.05
72558;BME280;60583;50.094;8.748;2023-04-07T09:49:19;100491.41;;;8.84;93.12
72558;BME280;60583;50.094;8.748;2023-04-07T09:52:01;100491.59;;;8.97;91.84
72558;BME280;60583;50.094;8.748;2023-04-07T09:54:39;100491.50;;;9.06;92.51
72558;BME280;60583;50.094;8.748;2023-04-07T09:57:10;100487.28;;;9.11;93.08
72558;BME280;60583;50.094;8.748;2023-04-07T09:59:40;100461.50;;;8.97;93.90
72558;BME280;60583;50.094;8.748;2023-04-07T10:02:10;100485.91;;;9.01;92.64
72558;BME280;60583;50.094;8.748;2023-04-07T10:04:36;100478.03;;;8.92;92.82
72558;BME280;60583;50.094;8.748;2023-04-07T10:07:01;100485.44;;;8.97;93.03
72558;BME280;60583;50.094;8.748;2023-04-07T10:09:29;100477.75;;;8.87;93.52
72558;BME280;60583;50.094;8.748;2023-04-07T10:11:56;100482.06;;;8.88;93.60
72558;BME280;60583;50.094;8.748;2023-04-07T10:14:29;100477.38;;;8.90;93.43
72558;BME280;60583;50.094;8.748;2023-04-07T10:16:55;100489.03;;;8.89;93.88
72558;BME280;60583;50.094;8.748;2023-04-07T10:19:21;100493.06;;;9.00;93.80
72558;BME280;60583;50.094;8.748;2023-04-07T10:21:51;100494.50;;;9.03;93.56
72558;BME280;60583;50.094;8.748;2023-04-07T10:24:53;100494.88;;;8.99;94.59
72558;BME280;60583;50.094;8.748;2023-04-07T10:27:28;100480.25;;;8.74;94.89
72558;BME280;60583;50.094;8.748;2023-04-07T10:29:56;100502.78;;;8.93;94.92
72558;BME280;60583;50.094;8.748;2023-04-07T10:32:22;100485.81;;;8.79;94.91
72558;BME280;60583;50.094;8.748;2023-04-07T10:37:21;100498.31;;;8.93;95.44
72558;BME280;60583;50.094;8.748;2023-04-07T10:40:26;100507.75;;;8.96;95.65
72558;BME280;60583;50.094;8.748;2023-04-07T10:42:52;100477.13;;;8.71;96.03
72558;BME280;60583;50.094;8.748;2023-04-07T10:48:23;100496.16;;;8.89;96.62
72558;BME280;60583;50.094;8.748;2023-04-07T10:53:30;100485.44;;;8.97;97.29
72558;BME280;60583;50.094;8.748;2023-04-07T10:55:56;100515.50;;;9.12;96.34
72558;BME280;60583;50.094;8.748;2023-04-07T11:03:34;100511.84;;;9.13;95.39
72558;BME280;60583;50.094;8.748;2023-04-07T11:06:07;100530.81;;;9.25;95.70
72558;BME280;60583;50.094;8.748;2023-04-07T11:08:41;100500.09;;;9.08;97.21
72558;BME280;60583;50.094;8.748;2023-04-07T11:11:08;100515.59;;;9.19;96.30
72558;BME280;60583;50.094;8.748;2023-04-07T11:13:41;100510.72;;;9.22;96.92
72558;BME280;60583;50.094;8.748;2023-04-07T11:16:07;100512.81;;;9.27;96.13
72558;BME280;60583;50.094;8.748;2023-04-07T11:18:33;100521.19;;;9.24;96.59
72558;BME280;60583;50.094;8.748;2023-04-07T11:20:59;100524.47;;;9.26;97.56
72558;BME280;60583;50.094;8.748;2023-04-07T11:23:25;100510.47;;;9.03;98.93
72558;BME280;60583;50.094;8.748;2023-04-07T11:26:01;100519.63;;;9.15;98.57
72558;BME280;60583;50.094;8.748;2023-04-07T11:28:28;100528.25;;;9.17;98.84
72558;BME280;60583;50.094;8.748;2023-04-07T11:30:54;100529.91;;;9.18;99.24
72558;BME280;60583;50.094;8.748;2023-04-07T11:33:25;100506.19;;;8.87;98.91
72558;BME280;60583;50.094;8.748;2023-04-07T11:36:01;100520.75;;;9.06;98.98
72558;BME280;60583;50.094;8.748;2023-04-07T11:38:29;100530.38;;;9.21;97.99
72558;BME280;60583;50.094;8.748;2023-04-07T11:41:12;100516.41;;;9.19;98.12
72558;BME280;60583;50.094;8.748;2023-04-07T11:43:38;100533.56;;;9.17;98.37
72558;BME280;60583;50.094;8.748;2023-04-07T11:46:08;100531.22;;;8.92;99.28
72558;BME280;60583;50.094;8.748;2023-04-07T11:48:35;100536.88;;;8.89;100.00
72558;BME280;60583;50.094;8.748;2023-04-07T11:51:02;100518.56;;;8.94;99.76
72558;BME280;60583;50.094;8.748;2023-04-07T11:53:32;100511.31;;;8.74;100.00
72558;BME280;60583;50.094;8.748;2023-04-07T11:56:14;100533.03;;;8.77;100.00
72558;BME280;60583;50.094;8.748;2023-04-07T11:59:01;100535.25;;;8.88;100.00
72558;BME280;60583;50.094;8.748;2023-04-07T12:01:38;100521.03;;;8.96;100.00
72558;BME280;60583;50.094;8.748;2023-04-07T12:04:05;100516.91;;;8.93;100.00
72558;BME280;60583;50.094;8.748;2023-04-07T12:06:32;100535.94;;;9.12;100.00
72558;BME280;60583;50.094;8.748;2023-04-07T12:09:07;100543.22;;;9.03;100.00
72558;BME280;60583;50.094;8.748;2023-04-07T12:11:33;100540.91;;;9.15;99.45
72558;BME280;60583;50.094;8.748;2023-04-07T12:14:01;100521.47;;;8.99;99.05
72558;BME280;60583;50.094;8.748;2023-04-07T12:16:29;100548.78;;;9.23;98.66
72558;BME280;60583;50.094;8.748;2023-04-07T12:18:55;100557.78;;;9.22;98.83
72558;BME280;60583;50.094;8.748;2023-04-07T12:21:21;100554.84;;;9.17;97.85
72558;BME280;60583;50.094;8.748;2023-04-07T12:23:48;100558.16;;;9.19;96.66
72558;BME280;60583;50.094;8.748;2023-04-07T12:26:13;100547.53;;;9.19;96.91
72558;BME280;60583;50.094;8.748;2023-04-07T12:28:39;100550.88;;;9.27;97.33
72558;BME280;60583;50.094;8.748;2023-04-07T12:31:04;100560.69;;;9.27;97.37
72558;BME280;60583;50.094;8.748;2023-04-07T12:33:30;100549.63;;;9.23;97.14
72558;BME280;60583;50.094;8.748;2023-04-07T12:35:56;100541.38;;;9.18;96.79
72558;BME280;60583;50.094;8.748;2023-04-07T12:38:22;100549.69;;;9.30;96.69
72558;BME280;60583;50.094;8.748;2023-04-07T12:40:48;100559.97;;;9.33;96.97
72558;BME280;60583;50.094;8.748;2023-04-07T12:43:13;100563.72;;;9.38;96.15
72558;BME280;60583;50.094;8.748;2023-04-07T12:45:39;100554.28;;;9.36;95.87
72558;BME280;60583;50.094;8.748;2023-04-07T12:48:04;100561.75;;;9.47;95.98
72558;BME280;60583;50.094;8.748;2023-04-07T12:50:30;100524.75;;;9.31;94.95
72558;BME280;60583;50.094;8.748;2023-04-07T12:52:56;100562.50;;;9.55;95.38
72558;BME280;60583;50.094;8.748;2023-04-07T12:55:23;100568.91;;;9.61;96.61
72558;BME280;60583;50.094;8.748;2023-04-07T12:57:48;100562.44;;;9.70;96.25
72558;BME280;60583;50.094;8.748;2023-04-07T13:00:14;100567.03;;;9.76;94.79
72558;BME280;60583;50.094;8.748;2023-04-07T13:02:41;100569.50;;;9.78;94.01
72558;BME280;60583;50.094;8.748;2023-04-07T13:05:06;100567.13;;;9.68;95.12
72558;BME280;60583;50.094;8.748;2023-04-07T13:07:32;100562.44;;;9.70;94.70
72558;BME280;60583;50.094;8.748;2023-04-07T13:09:59;100572.84;;;9.65;94.82
72558;BME280;60583;50.094;8.748;2023-04-07T13:12:24;100563.22;;;9.64;95.32
72558;BME280;60583;50.094;8.748;2023-04-07T13:14:50;100573.56;;;9.74;95.39
72558;BME280;60583;50.094;8.748;2023-04-07T13:17:15;100543.19;;;9.68;95.55